createdAt,value
2022-11-01T00:01:50.775Z,7.13
2022-11-01T00:04:17.811Z,9.20
2022-11-01T00:06:44.338Z,8.70
2022-11-01T00:09:11.390Z,7.67
2022-11-01T00:11:38.216Z,7.23
2022-11-01T00:14:04.921Z,8.13
2022-11-01T00:16:31.671Z,7.87
2022-11-01T00:18:58.304Z,8.17
2022-11-01T00:21:24.844Z,8.87
2022-11-01T00:23:51.370Z,7.37
2022-11-01T00:26:20.684Z,8.23
2022-11-01T00:28:47.862Z,9.07
2022-11-01T00:31:16.095Z,9.17
2022-11-01T00:33:42.662Z,6.73
2022-11-01T00:36:09.705Z,9.80
2022-11-01T00:38:36.836Z,8.27
2022-11-01T00:41:04.048Z,8.13
2022-11-01T00:43:31.926Z,8.20
2022-11-01T00:45:59.089Z,7.50
2022-11-01T00:48:25.631Z,8.13
2022-11-01T00:50:52.218Z,8.07
2022-11-01T00:53:18.822Z,7.57
2022-11-01T00:55:45.469Z,7.53
2022-11-01T00:58:12.047Z,7.63
2022-11-01T01:00:38.640Z,7.13
2022-11-01T01:03:06.132Z,7.73
2022-11-01T01:05:34.382Z,7.77
2022-11-01T01:08:01.159Z,7.63
2022-11-01T01:10:27.731Z,7.20
2022-11-01T01:12:54.618Z,7.63
2022-11-01T01:15:21.128Z,6.90
2022-11-01T01:17:47.703Z,9.87
2022-11-01T01:20:14.432Z,5.83
2022-11-01T01:22:42.393Z,7.17
2022-11-01T01:25:09.709Z,8.70
2022-11-01T01:27:36.326Z,7.97
2022-11-01T01:30:03.766Z,7.17
2022-11-01T01:32:30.689Z,7.07
2022-11-01T01:34:57.205Z,6.47
2022-11-01T01:37:23.774Z,7.40
2022-11-01T01:39:50.288Z,6.23
2022-11-01T01:42:25.877Z,6.70
2022-11-01T01:44:55.494Z,7.07
2022-11-01T01:47:30.300Z,6.90
2022-11-01T01:50:00.993Z,6.67
2022-11-01T01:52:30.125Z,6.60
2022-11-01T01:54:57.297Z,6.23
2022-11-01T01:57:24.609Z,6.60
2022-11-01T01:59:52.175Z,6.23
2022-11-01T02:02:20.315Z,7.30
2022-11-01T02:04:53.906Z,6.73
2022-11-01T02:07:20.441Z,7.17
2022-11-01T02:09:47.730Z,6.43
2022-11-01T02:12:14.771Z,7.10
2022-11-01T02:14:43.045Z,6.73
2022-11-01T02:17:26.179Z,6.47
2022-11-01T02:20:25.569Z,6.57
2022-11-01T02:23:10.759Z,6.43
2022-11-01T02:26:13.882Z,6.73
2022-11-01T02:29:03.085Z,6.87
2022-11-01T02:31:56.170Z,6.30
2022-11-01T02:34:43.863Z,6.10
2022-11-01T02:37:42.624Z,5.87
2022-11-01T02:40:20.327Z,6.93
2022-11-01T02:42:52.381Z,6.47
2022-11-01T02:45:41.828Z,6.23
2022-11-01T02:48:08.700Z,6.13
2022-11-01T02:50:43.124Z,5.73
2022-11-01T02:53:10.433Z,7.00
2022-11-01T02:55:36.985Z,6.80
2022-11-01T02:58:19.661Z,7.60
2022-11-01T03:00:46.275Z,6.10
2022-11-01T03:03:29.138Z,6.10
2022-11-01T03:06:01.381Z,6.40
2022-11-01T03:08:34.201Z,7.53
2022-11-01T03:11:28.712Z,5.73
2022-11-01T03:14:06.643Z,6.83
2022-11-01T03:16:38.273Z,7.47
2022-11-01T03:19:28.951Z,5.43
2022-11-01T03:22:16.882Z,6.30
2022-11-01T03:25:26.837Z,5.80
2022-11-01T03:27:54.767Z,5.67
2022-11-01T03:30:21.634Z,5.13
2022-11-01T03:32:52.917Z,6.47
2022-11-01T03:35:27.258Z,5.93
2022-11-01T03:37:58.597Z,7.10
2022-11-01T03:40:28.681Z,5.87
2022-11-01T03:43:01.130Z,5.63
2022-11-01T03:45:30.270Z,5.40
2022-11-01T03:47:56.970Z,5.03
2022-11-01T03:50:25.882Z,6.03
2022-11-01T03:52:52.966Z,5.90
2022-11-01T03:55:20.580Z,4.57
2022-11-01T03:57:55.568Z,5.40
2022-11-01T04:00:29.416Z,6.10
2022-11-01T04:02:57.365Z,5.93
2022-11-01T04:05:26.096Z,5.33
2022-11-01T04:07:52.894Z,5.27
2022-11-01T04:10:20.396Z,5.53
2022-11-01T04:12:48.742Z,5.20
2022-11-01T04:15:35.584Z,5.50
2022-11-01T04:21:16.383Z,5.67
2022-11-01T04:23:44.594Z,5.93
2022-11-01T04:26:20.450Z,6.03
2022-11-01T04:28:59.451Z,5.67
2022-11-01T04:31:35.063Z,5.10
2022-11-01T04:34:04.333Z,4.83
2022-11-01T04:36:31.285Z,5.63
2022-11-01T04:38:58.406Z,5.40
2022-11-01T04:41:26.986Z,5.13
2022-11-01T04:43:55.297Z,5.13
2022-11-01T04:46:21.955Z,5.07
2022-11-01T04:48:48.814Z,5.87
2022-11-01T04:51:15.413Z,5.93
2022-11-01T04:53:41.953Z,5.77
2022-11-01T04:56:10.754Z,4.43
2022-11-01T04:58:42.961Z,5.50
2022-11-01T05:01:13.312Z,4.57
2022-11-01T05:03:39.960Z,5.43
2022-11-01T05:06:06.732Z,5.60
2022-11-01T05:08:33.457Z,4.93
2022-11-01T05:11:00.048Z,5.83
2022-11-01T05:13:26.588Z,5.53
2022-11-01T05:16:17.967Z,5.33
2022-11-01T05:18:42.443Z,5.70
2022-11-01T05:21:08.991Z,4.57
2022-11-01T05:23:35.531Z,4.60
2022-11-01T05:26:02.056Z,5.03
2022-11-01T05:28:28.578Z,5.90
2022-11-01T05:30:55.163Z,5.00
2022-11-01T05:33:21.719Z,5.17
2022-11-01T05:35:48.569Z,5.50
2022-11-01T05:38:15.069Z,5.87
2022-11-01T05:40:41.577Z,5.20
2022-11-01T05:43:08.101Z,5.40
2022-11-01T05:45:34.617Z,4.97
2022-11-01T05:48:04.736Z,5.30
2022-11-01T05:50:31.891Z,5.70
2022-11-01T05:53:09.939Z,4.67
2022-11-01T05:55:36.839Z,4.77
2022-11-01T05:58:04.240Z,4.57
2022-11-01T06:00:31.354Z,4.83
2022-11-01T06:02:58.863Z,4.93
2022-11-01T06:05:26.506Z,5.33
2022-11-01T06:07:53.055Z,4.23
2022-11-01T06:10:19.577Z,4.93
2022-11-01T06:12:46.173Z,5.20
2022-11-01T06:15:12.693Z,4.80
2022-11-01T06:17:39.264Z,5.10
2022-11-01T06:20:06.257Z,5.53
2022-11-01T06:22:36.185Z,4.30
2022-11-01T06:25:02.945Z,5.20
2022-11-01T06:27:29.660Z,4.60
2022-11-01T06:29:56.185Z,4.53
2022-11-01T06:32:22.882Z,4.97
2022-11-01T06:34:49.441Z,5.40
2022-11-01T06:37:15.950Z,5.10
2022-11-01T06:39:42.469Z,4.77
2022-11-01T06:42:09.654Z,5.50
2022-11-01T06:44:36.286Z,4.30
2022-11-01T06:47:03.038Z,5.07
2022-11-01T06:49:30.422Z,4.30
2022-11-01T06:51:57.229Z,4.60
2022-11-01T06:54:23.747Z,5.83
2022-11-01T06:56:50.237Z,5.97
2022-11-01T06:59:16.876Z,4.73
2022-11-01T07:01:44.098Z,4.57
2022-11-01T07:06:38.309Z,5.00
2022-11-01T07:09:05.498Z,4.70
2022-11-01T07:11:33.140Z,4.03
2022-11-01T07:13:59.820Z,4.87
2022-11-01T07:16:27.228Z,5.10
2022-11-01T07:18:53.856Z,4.00
2022-11-01T07:21:20.747Z,4.37
2022-11-01T07:23:47.311Z,5.23
2022-11-01T07:26:14.089Z,4.33
2022-11-01T07:28:40.727Z,4.23
2022-11-01T07:31:07.689Z,4.53
2022-11-01T07:33:34.902Z,4.80
2022-11-01T07:36:02.402Z,4.60
2022-11-01T07:38:29.199Z,4.10
2022-11-01T07:40:55.955Z,4.20
2022-11-01T07:43:22.594Z,5.50
2022-11-01T07:45:49.692Z,7.70
2022-11-01T07:48:18.438Z,6.30
2022-11-01T07:50:45.690Z,4.70
2022-11-01T07:53:18.042Z,4.93
2022-11-01T07:55:45.292Z,4.37
2022-11-01T07:58:13.135Z,4.70
2022-11-01T08:00:40.805Z,4.67
2022-11-01T08:03:10.126Z,5.90
2022-11-01T08:05:36.944Z,4.53
2022-11-01T08:08:04.153Z,4.00
2022-11-01T08:10:31.690Z,7.27
2022-11-01T08:13:05.818Z,5.80
2022-11-01T08:15:32.879Z,4.70
2022-11-01T08:18:00.329Z,3.90
2022-11-01T08:20:27.631Z,4.53
2022-11-01T08:22:54.476Z,4.97
2022-11-01T08:25:21.514Z,8.63
2022-11-01T08:27:48.350Z,3.30
2022-11-01T08:30:17.830Z,6.13
2022-11-01T08:32:45.085Z,3.93
2022-11-01T08:35:12.252Z,3.90
2022-11-01T08:37:50.464Z,3.40
2022-11-01T08:40:17.503Z,5.17
2022-11-01T08:42:44.762Z,3.53
2022-11-01T08:45:11.839Z,3.83
2022-11-01T08:47:39.406Z,6.37
2022-11-01T08:50:10.224Z,3.10
2022-11-01T08:52:37.797Z,4.47
2022-11-01T08:55:04.647Z,3.57
2022-11-01T08:57:31.239Z,3.27
2022-11-01T08:59:57.925Z,4.10
2022-11-01T09:02:24.808Z,4.40
2022-11-01T09:04:51.492Z,4.10
2022-11-01T09:07:18.913Z,4.47
2022-11-01T09:09:45.493Z,2.57
2022-11-01T09:12:14.672Z,3.23
2022-11-01T09:14:41.793Z,2.20
2022-11-01T09:17:08.660Z,3.00
2022-11-01T09:19:35.434Z,5.20
2022-11-01T09:22:02.014Z,3.63
2022-11-01T09:24:28.603Z,3.20
2022-11-01T09:26:55.179Z,3.50
2022-11-01T09:29:21.826Z,3.17
2022-11-01T09:31:52.820Z,3.20
2022-11-01T09:34:20.225Z,2.77
2022-11-01T09:36:47.677Z,5.47
2022-11-01T09:39:16.299Z,3.23
2022-11-01T09:41:47.511Z,5.03
2022-11-01T09:44:18.558Z,4.40
2022-11-01T09:47:02.951Z,3.43
2022-11-01T09:49:33.037Z,3.30
2022-11-01T09:51:59.813Z,3.30
2022-11-01T09:54:28.407Z,5.87
2022-11-01T09:57:26.893Z,3.27
2022-11-01T10:00:05.714Z,3.47
2022-11-01T10:02:41.243Z,4.13
2022-11-01T10:05:22.127Z,3.90
2022-11-01T10:08:12.455Z,3.10
2022-11-01T10:10:57.616Z,5.07
2022-11-01T10:13:39.167Z,4.10
2022-11-01T10:16:34.582Z,4.73
2022-11-01T10:19:18.754Z,2.57
2022-11-01T10:21:49.767Z,3.43
2022-11-01T10:24:29.065Z,4.20
2022-11-01T10:27:18.458Z,5.67
2022-11-01T10:29:47.894Z,2.70
2022-11-01T10:32:45.153Z,3.77
2022-11-01T10:35:20.349Z,4.07
2022-11-01T10:38:45.378Z,5.17
2022-11-01T10:41:22.812Z,5.03
2022-11-01T10:43:53.393Z,3.20
2022-11-01T10:46:27.033Z,3.00
2022-11-01T10:49:06.509Z,1.50
2022-11-01T10:51:35.173Z,5.30
2022-11-01T10:54:05.377Z,4.63
2022-11-01T10:56:41.647Z,4.30
2022-11-01T10:59:35.082Z,9.17
2022-11-01T11:02:05.495Z,4.80
2022-11-01T11:04:32.402Z,3.13
2022-11-01T11:06:58.966Z,6.90
2022-11-01T11:09:32.692Z,6.03
2022-11-01T11:12:03.853Z,5.50
2022-11-01T11:14:32.878Z,5.97
2022-11-01T11:17:02.798Z,3.43
2022-11-01T11:19:29.275Z,2.27
2022-11-01T11:21:56.980Z,3.70
2022-11-01T11:24:36.033Z,4.47
2022-11-01T11:27:05.826Z,6.93
2022-11-01T11:29:40.281Z,4.13
2022-11-01T11:32:15.920Z,3.23
2022-11-01T11:34:43.058Z,4.10
2022-11-01T11:37:21.604Z,3.70
2022-11-01T11:40:10.264Z,2.93
2022-11-01T11:42:36.837Z,3.20
2022-11-01T11:45:25.337Z,2.43
2022-11-01T11:47:52.060Z,7.77
2022-11-01T11:50:21.769Z,3.40
2022-11-01T11:52:51.301Z,4.13
2022-11-01T11:55:44.687Z,3.43
2022-11-01T11:58:34.693Z,3.40
2022-11-01T12:01:11.375Z,4.40
2022-11-01T12:03:58.270Z,5.43
2022-11-01T12:06:29.369Z,6.93
2022-11-01T12:08:58.556Z,4.97
2022-11-01T12:11:38.377Z,3.93
2022-11-01T12:14:06.077Z,5.50
2022-11-01T12:16:42.319Z,5.57
2022-11-01T12:19:25.956Z,7.10
2022-11-01T12:21:54.349Z,4.07
2022-11-01T12:24:21.443Z,2.57
2022-11-01T12:26:51.222Z,4.60
2022-11-01T12:29:33.206Z,3.37
2022-11-01T12:32:12.182Z,3.37
2022-11-01T12:34:42.549Z,2.93
2022-11-01T12:37:21.657Z,2.10
2022-11-01T12:39:54.509Z,4.93
2022-11-01T12:42:46.250Z,2.93
2022-11-01T12:45:22.525Z,1.87
2022-11-01T12:47:55.276Z,3.57
2022-11-01T12:50:40.316Z,5.27
2022-11-01T12:53:21.777Z,3.83
2022-11-01T12:55:48.418Z,3.30
2022-11-01T12:58:18.544Z,6.07
2022-11-01T13:00:56.971Z,2.80
2022-11-01T13:04:02.546Z,7.47
2022-11-01T13:06:55.429Z,5.87
2022-11-01T13:09:54.333Z,4.63
2022-11-01T13:12:39.047Z,2.87
2022-11-01T13:15:25.579Z,2.77
2022-11-01T13:18:14.528Z,3.97
2022-11-01T13:20:50.907Z,2.13
2022-11-01T13:23:33.354Z,2.80
2022-11-01T13:26:18.276Z,2.57
2022-11-01T13:29:01.242Z,1.90
2022-11-01T13:32:00.831Z,2.80
2022-11-01T13:34:55.253Z,2.60
2022-11-01T13:37:29.248Z,2.27
2022-11-01T13:40:02.699Z,4.33
2022-11-01T13:42:35.858Z,4.43
2022-11-01T13:45:23.925Z,1.10
2022-11-01T13:48:14.338Z,3.03
2022-11-01T13:50:52.671Z,4.40
2022-11-01T13:53:25.265Z,1.80
2022-11-01T13:56:06.256Z,2.13
2022-11-01T13:58:33.301Z,2.63
2022-11-01T14:01:28.735Z,5.10
2022-11-01T14:04:27.748Z,3.03
2022-11-01T14:07:15.542Z,4.03
2022-11-01T14:09:46.469Z,3.97
2022-11-01T14:12:31.932Z,3.17
2022-11-01T14:15:17.352Z,3.53
2022-11-01T14:17:57.680Z,2.87
2022-11-01T14:20:29.769Z,7.50
2022-11-01T14:22:57.569Z,5.80
2022-11-01T14:25:24.090Z,3.83
2022-11-01T14:28:11.713Z,4.70
2022-11-01T14:30:42.157Z,7.43
2022-11-01T14:33:18.075Z,9.57
2022-11-01T14:35:51.503Z,5.57
2022-11-01T14:38:25.334Z,3.37
2022-11-01T14:41:01.958Z,4.17
2022-11-01T14:44:12.570Z,5.00
2022-11-01T14:46:46.270Z,3.63
2022-11-01T14:49:19.917Z,4.67
2022-11-01T14:51:52.538Z,3.67
2022-11-01T14:55:01.423Z,5.53
2022-11-01T14:57:31.168Z,4.37
2022-11-01T14:59:59.228Z,3.20
2022-11-01T15:02:28.033Z,2.13
2022-11-01T15:05:00.056Z,3.20
2022-11-01T15:07:31.196Z,3.07
2022-11-01T15:10:09.811Z,4.47
2022-11-01T15:13:00.303Z,4.50
2022-11-01T15:15:30.808Z,3.37
2022-11-01T15:18:01.044Z,4.23
2022-11-01T15:20:35.057Z,3.77
2022-11-01T15:23:07.004Z,3.07
2022-11-01T15:25:33.565Z,4.70
2022-11-01T15:28:00.148Z,2.23
2022-11-01T15:30:30.260Z,3.60
2022-11-01T15:33:20.068Z,2.43
2022-11-01T15:35:59.334Z,4.67
2022-11-01T15:38:27.281Z,4.20
2022-11-01T15:40:54.040Z,3.40
2022-11-01T15:43:23.457Z,3.67
2022-11-01T15:45:59.898Z,3.60
2022-11-01T15:48:30.616Z,2.17
2022-11-01T15:51:03.613Z,2.77
2022-11-01T15:53:34.965Z,2.53
2022-11-01T15:56:07.161Z,3.83
2022-11-01T15:58:55.115Z,3.60
2022-11-01T16:01:23.352Z,4.03
2022-11-01T16:03:58.912Z,2.67
2022-11-01T16:06:33.336Z,4.90
2022-11-01T16:09:07.027Z,3.43
2022-11-01T16:11:34.873Z,2.40
2022-11-01T16:14:22.328Z,3.77
2022-11-01T16:17:04.370Z,4.07
2022-11-01T16:19:38.753Z,4.53
2022-11-01T16:22:29.229Z,4.63
2022-11-01T16:25:16.237Z,3.37
2022-11-01T16:28:03.136Z,2.37
2022-11-01T16:30:42.684Z,4.90
2022-11-01T16:33:23.882Z,3.47
2022-11-01T16:35:58.912Z,9.40
2022-11-01T16:38:35.293Z,9.03
2022-11-01T16:41:17.869Z,9.80
2022-11-01T16:43:45.220Z,9.97
2022-11-01T16:46:11.846Z,6.17
2022-11-01T16:48:52.756Z,8.03
2022-11-01T16:51:21.254Z,5.60
2022-11-01T16:53:47.794Z,9.70
2022-11-01T16:56:40.597Z,9.60
2022-11-01T16:59:31.630Z,8.37
2022-11-01T17:01:58.809Z,10.00
2022-11-01T17:04:26.934Z,12.03
2022-11-01T17:06:54.381Z,24.47
2022-11-01T17:09:24.919Z,19.50
2022-11-01T17:11:53.706Z,25.90
2022-11-01T17:14:21.351Z,24.87
2022-11-01T17:16:49.889Z,22.37
2022-11-01T17:19:23.783Z,22.17
2022-11-01T17:21:52.030Z,22.30
2022-11-01T17:24:21.123Z,20.50
2022-11-01T17:26:49.262Z,19.27
2022-11-01T17:29:16.155Z,27.43
2022-11-01T17:31:42.688Z,28.60
2022-11-01T17:34:09.206Z,21.93
2022-11-01T17:36:36.363Z,14.73
2022-11-01T17:39:04.342Z,16.90
2022-11-01T17:41:31.045Z,17.40
2022-11-01T17:43:57.616Z,15.87
2022-11-01T17:46:25.863Z,13.17
2022-11-01T17:48:52.459Z,12.23
2022-11-01T17:51:19.182Z,17.00
2022-11-01T17:53:45.890Z,11.97
2022-11-01T17:56:12.448Z,11.33
2022-11-01T17:58:39.016Z,14.50
2022-11-01T18:01:08.002Z,10.47
2022-11-01T18:03:34.633Z,10.27
2022-11-01T18:06:01.419Z,9.93
2022-11-01T18:08:30.588Z,13.23
2022-11-01T18:11:51.558Z,7.93
2022-11-01T18:14:36.059Z,9.60
2022-11-01T18:17:16.352Z,8.83
2022-11-01T18:19:55.532Z,8.20
2022-11-01T18:22:50.256Z,7.83
2022-11-01T18:25:32.393Z,11.17
2022-11-01T18:28:01.455Z,7.80
2022-11-01T18:30:28.470Z,7.37
2022-11-01T18:33:02.947Z,9.57
2022-11-01T18:36:01.136Z,10.00
2022-11-01T18:38:50.937Z,9.67
2022-11-01T18:41:20.398Z,6.57
2022-11-01T18:43:46.933Z,6.63
2022-11-01T18:46:26.272Z,9.63
2022-11-01T18:49:01.817Z,6.87
2022-11-01T18:51:34.105Z,5.43
2022-11-01T18:54:09.861Z,9.70
2022-11-01T18:56:49.228Z,16.00
2022-11-01T18:59:23.942Z,10.83
2022-11-01T19:02:15.876Z,10.17
2022-11-01T19:04:43.561Z,9.07
2022-11-01T19:07:15.889Z,8.83
2022-11-01T19:09:55.310Z,7.97
2022-11-01T19:12:40.146Z,7.13
2022-11-01T19:15:28.092Z,8.03
2022-11-01T19:18:04.365Z,7.30
2022-11-01T19:20:32.820Z,6.97
2022-11-01T19:23:01.853Z,6.40
2022-11-01T19:25:32.098Z,5.20
2022-11-01T19:28:05.615Z,6.07
2022-11-01T19:30:33.500Z,6.30
2022-11-01T19:33:29.490Z,9.20
2022-11-01T19:35:57.858Z,8.17
2022-11-01T19:38:24.545Z,5.87
2022-11-01T19:40:53.343Z,9.60
2022-11-01T19:43:22.648Z,7.10
2022-11-01T19:45:53.586Z,7.97
2022-11-01T19:48:27.285Z,5.97
2022-11-01T19:50:54.448Z,8.43
2022-11-01T19:53:27.470Z,11.83
2022-11-01T19:56:03.249Z,9.30
2022-11-01T19:58:48.901Z,8.90
2022-11-01T20:01:38.820Z,8.43
2022-11-01T20:04:28.927Z,8.33
2022-11-01T20:07:20.157Z,8.63
2022-11-01T20:09:48.192Z,8.00
2022-11-01T20:12:18.612Z,7.73
2022-11-01T20:14:48.088Z,7.50
2022-11-01T20:17:14.771Z,7.07
2022-11-01T20:19:41.333Z,7.07
2022-11-01T20:22:07.902Z,5.40
2022-11-01T20:24:34.516Z,6.50
2022-11-01T20:27:01.409Z,7.40
2022-11-01T20:29:28.159Z,7.33
2022-11-01T20:31:54.746Z,5.20
2022-11-01T20:34:21.376Z,9.50
2022-11-01T20:37:08.098Z,6.27
2022-11-01T20:39:34.883Z,5.50
2022-11-01T20:42:01.900Z,5.40
2022-11-01T20:44:28.470Z,5.53
2022-11-01T20:46:55.003Z,6.23
2022-11-01T20:49:21.544Z,4.33
2022-11-01T20:51:48.086Z,4.93
2022-11-01T20:54:17.830Z,6.17
2022-11-01T20:56:44.679Z,5.80
2022-11-01T20:59:12.268Z,5.70
2022-11-01T21:01:40.365Z,6.37
2022-11-01T21:04:11.978Z,4.00
2022-11-01T21:06:38.977Z,5.03
2022-11-01T21:09:27.248Z,6.27
2022-11-01T21:11:55.981Z,4.70
2022-11-01T21:14:23.459Z,5.90
2022-11-01T21:16:50.483Z,5.27
2022-11-01T21:19:21.156Z,6.37
2022-11-01T21:21:51.736Z,4.43
2022-11-01T21:24:34.521Z,7.43
2022-11-01T21:27:09.961Z,5.10
2022-11-01T21:29:38.000Z,5.67
2022-11-01T21:32:23.709Z,5.20
2022-11-01T21:34:51.171Z,5.47
2022-11-01T21:37:21.701Z,6.17
2022-11-01T21:39:53.689Z,7.50
2022-11-01T21:42:33.441Z,8.57
2022-11-01T21:45:02.457Z,5.53
2022-11-01T21:47:32.837Z,7.40
2022-11-01T21:49:59.378Z,5.33
2022-11-01T21:52:26.137Z,3.90
2022-11-01T21:54:53.082Z,5.50
2022-11-01T21:57:19.910Z,4.90
2022-11-01T21:59:46.493Z,6.43
2022-11-01T22:02:14.510Z,3.53
2022-11-01T22:04:41.579Z,3.97
2022-11-01T22:07:09.564Z,3.57
2022-11-01T22:09:36.714Z,6.33
2022-11-01T22:12:03.568Z,4.57
2022-11-01T22:14:30.218Z,6.83
2022-11-01T22:16:56.803Z,5.97
2022-11-01T22:19:23.916Z,3.53
2022-11-01T22:21:50.423Z,4.97
2022-11-01T22:24:17.008Z,5.60
2022-11-01T22:26:43.543Z,4.60
2022-11-01T22:29:10.121Z,3.80
2022-11-01T22:31:36.684Z,6.17
2022-11-01T22:34:03.281Z,6.63
2022-11-01T22:36:31.676Z,6.13
2022-11-01T22:39:00.016Z,7.30
2022-11-01T22:41:33.398Z,5.57
2022-11-01T22:44:06.363Z,5.23
2022-11-01T22:46:49.401Z,5.10
2022-11-01T22:49:33.834Z,4.30
2022-11-01T22:52:15.673Z,6.83
2022-11-01T22:54:51.801Z,3.67
2022-11-01T22:57:21.968Z,4.97
2022-11-01T22:59:53.429Z,4.97
2022-11-01T23:02:32.226Z,8.53
2022-11-01T23:05:08.164Z,4.03
2022-11-01T23:07:38.897Z,5.23
2022-11-01T23:10:30.579Z,4.97
2022-11-01T23:13:30.103Z,5.57
2022-11-01T23:15:59.628Z,5.33
2022-11-01T23:18:30.332Z,5.17
2022-11-01T23:20:59.674Z,4.63
2022-11-01T23:23:26.449Z,7.23
2022-11-01T23:25:55.106Z,4.63
2022-11-01T23:28:23.366Z,8.43
2022-11-01T23:30:51.562Z,5.83
2022-11-01T23:33:20.411Z,5.17
2022-11-01T23:35:58.001Z,6.33
2022-11-01T23:38:40.641Z,6.10
2022-11-01T23:41:22.641Z,4.20
2022-11-01T23:43:50.550Z,7.00
2022-11-01T23:46:18.867Z,4.87
2022-11-01T23:48:45.982Z,3.97
2022-11-01T23:51:18.376Z,4.13
2022-11-01T23:53:46.902Z,4.83
2022-11-01T23:56:16.429Z,3.60
2022-11-01T23:58:43.010Z,4.93
